Flight Track Log - Related Links

Times and Time Zones

All times are in EDT time to prevent confusion due to time zone crossing. See the WJA751 flight status page for this flight to view local times or setup timezone preferences in your user account.

Time Position Orientation Groundspeed Altitude Reporting Facility
EDT Latitude Longitude Course Direction KTS MPH feet Rate Location/Type
Tue 12:38:56 AM 51.1000 -114.0667 268° West 100 115 4,400  Level Edmonton Center
Tue 12:43:56 AM 51.0833 -114.6500 254° West 340 391 18,100 2,783 Climbing Edmonton Center
Tue 12:44:56 AM 51.0500 -114.8333 261° West 350 403 21,100 2,650 Climbing Edmonton Center
Tue 12:45:56 AM 51.0333 -115.0000 263° West 370 426 23,400 2,288 Climbing Edmonton Center
Tue 12:47:36 AM 51.0167 -115.2167 252° West 400 460 27,200 2,175 Climbing Vancouver Center
Tue 12:48:36 AM 50.9833 -115.3833 262° West 410 472 29,200 2,000 Climbing Vancouver Center
Tue 12:49:36 AM 50.9667 -115.5667 252° West 410 472 31,200 2,150 Climbing Vancouver Center
Tue 12:50:36 AM 50.9333 -115.7333 245° Southwest 410 472 33,500 2,700 Climbing Vancouver Center
Tue 12:51:36 AM 50.8833 -115.9000 261° West 390 449 36,600 2,000 Climbing Vancouver Center
Tue 12:52:36 AM 50.8667 -116.0667 252° West 380 437 37,500 750 Climbing Vancouver Center
Tue 12:53:36 AM 50.8333 -116.2333 252° West 390 449 38,100 650 Climbing Vancouver Center
Tue 12:54:36 AM 50.8000 -116.4000 251° West 410 472 38,800 850 Climbing Vancouver Center
Tue 12:55:36 AM 50.7667 -116.5500 257° West 420 483 39,800 600 Climbing Vancouver Center
Tue 12:56:36 AM 50.7333 -116.7833 242° Southwest 420 483 40,000 100 Climbing Vancouver Center
Tue 12:57:36 AM 50.6833 -116.9333 261° West 420 483 40,000  Level Vancouver Center
Tue 12:58:36 AM 50.6667 -117.1000 249° West 420 483 40,000  Level Vancouver Center
Tue 12:59:36 AM 50.6167 -117.3000 251° West 420 483 40,000  Level Vancouver Center
Tue 01:00:36 AM 50.5833 -117.4500 255° West 420 483 40,000  Level Vancouver Center
Tue 01:01:36 AM 50.5500 -117.6500 245° Southwest 420 483 40,000  Level Vancouver Center
Tue 01:02:36 AM 50.5000 -117.8167 260° West 420 483 40,000  Level Vancouver Center
Tue 01:03:36 AM 50.4833 -117.9667 249° West 410 472 40,000  Level Vancouver Center
Tue 01:04:36 AM 50.4333 -118.1667 251° West 420 483 40,000  Level Vancouver Center
Tue 01:05:36 AM 50.4000 -118.3167 245° Southwest 410 472 40,000  Level Vancouver Center
Tue 01:06:36 AM 50.3500 -118.4833 262° West 420 483 40,000  Level Vancouver Center
Tue 01:07:36 AM 50.3333 -118.6667 245° Southwest 420 483 40,000  Level Vancouver Center
Tue 01:08:36 AM 50.2833 -118.8333 247° West 420 483 40,000  Level Vancouver Center
Tue 01:09:36 AM 50.2333 -119.0167 253° West 420 483 40,000  Level Vancouver Center
Tue 01:10:36 AM 50.2000 -119.1833 254° West 420 483 40,000  Level Vancouver Center
Tue 01:11:36 AM 50.1667 -119.3667 253° West 420 483 40,000  Level Vancouver Center
Tue 01:12:36 AM 50.1333 -119.5333 247° West 420 483 40,000  Level Vancouver Center
Tue 01:13:36 AM 50.0833 -119.7167 243° Southwest 420 483 40,000  Level Vancouver Center
Tue 01:14:36 AM 50.0333 -119.8667 261° West 420 483 40,000  Level Vancouver Center
Tue 01:15:36 AM 50.0167 -120.0333 243° Southwest 410 472 40,000  Level Vancouver Center
Tue 01:16:36 AM 49.9667 -120.1833 249° West 410 472 40,000  Level Vancouver Center
Tue 01:17:36 AM 49.9167 -120.3833 251° West 420 483 40,000  Level Vancouver Center
Tue 01:18:36 AM 49.8833 -120.5333 251° West 420 483 40,000  Level Vancouver Center
Tue 01:19:36 AM 49.8500 -120.6833 249° West 420 483 40,000  Level Vancouver Center
Tue 01:20:36 AM 49.8000 -120.8833 243° Southwest 410 472 40,000 -1,000 Level Vancouver Center
Tue 01:21:36 AM 49.7500 -121.0333 245° Southwest 420 483 38,000 -2,050 Descending Vancouver Center
Tue 01:22:36 AM 49.7000 -121.2000 226° Southwest 420 483 35,900 -2,400 Descending Vancouver Center
Tue 01:23:36 AM 49.6167 -121.3333 229° Southwest 410 472 33,200 -2,850 Descending Vancouver Center
Tue 01:24:36 AM 49.5500 -121.4500 226° Southwest 410 472 30,200 -2,650 Descending Vancouver Center
Tue 01:25:36 AM 49.4667 -121.5833 232° Southwest 410 472 27,900 -2,650 Descending Vancouver Center
Tue 01:26:36 AM 49.4000 -121.7167 233° Southwest 400 460 24,900 -2,300 Descending Vancouver Center
Tue 01:27:36 AM 49.3333 -121.8500 224° Southwest 380 437 23,300 -1,750 Descending Vancouver Center
Tue 01:28:36 AM 49.2667 -121.9500 237° Southwest 360 414 21,400 -1,550 Descending Vancouver Center
Tue 01:29:36 AM 49.2167 -122.0667 233° Southwest 340 391 20,200 -700 Descending Vancouver Center
Tue 01:30:36 AM 49.1667 -122.1667 228° Southwest 300 345 20,000 -100 Descending Vancouver Center
Tue 01:31:36 AM 49.1167 -122.2500 221° Southwest 270 311 20,000 -450 Level Vancouver Center
Tue 01:32:36 AM 49.0667 -122.3167 237° Southwest 260 299 19,100 -2,050 Descending Vancouver Center
Tue 01:33:36 AM 49.0167 -122.4333 225° Southwest 290 334 15,900 -3,350 Descending Vancouver Center
Tue 01:34:36 AM 48.9500 -122.5333 225° Southwest 330 380 12,400 -2,700 Descending Vancouver Center
Tue 01:35:36 AM 48.8833 -122.6333 233° Southwest 340 391 10,500 -1,300 Descending Vancouver Center
Tue 01:36:36 AM 48.8333 -122.7333 228° Southwest 300 345 9,800 -1,050 Descending Vancouver Center
Tue 01:37:36 AM 48.7833 -122.8167 221° Southwest 260 299 8,400 -1,300 Descending Vancouver Center
Tue 01:38:36 AM 48.7333 -122.8833 239° Southwest 250 288 7,200 -1,000 Descending Vancouver Center
Tue 01:39:36 AM 48.7000 -122.9667 228° Southwest 240 276 6,400 -1,100 Descending Vancouver Center
Tue 01:40:36 AM 48.6500 -123.0500 225° Southwest 230 265 5,000 -1,300 Descending Vancouver Center
Tue 01:41:36 AM 48.6167 -123.1000 225° Southwest 210 242 3,800 -750 Descending Vancouver Center
Tue 01:42:36 AM 48.5833 -123.1500 270° West 170 196 3,500 -600 Descending Vancouver Center
Tue 01:43:36 AM 48.5833 -123.2167 297° West 160 184 2,600 -800 Descending Vancouver Center
Tue 01:44:36 AM 48.6000 -123.2667 270° West 150 173 1,900 -650 Descending Vancouver Center
Tue 01:45:36 AM 48.6000 -123.3167 297° West 120 138 1,300 -650 Descending Vancouver Center
Tue 01:46:36 AM 48.6167 -123.3667 297° West 120 138 600 -700 Descending Vancouver Center

Login

Don't have an account? Register now (free) for customized features, flight alerts, and more!